Sault Ste. Marie, Ontario

2:55 PM EDT on April 28, 2015 (GMT -0400)
IONSAULT2 | | Change Station
CLOSE
Current Station
Personal Weather Station
Location: Sault Ste. Marie, ON
Elevation: 684 ft
Nearby Weather Stations

Elev 684 ft 46.55 °N, 84.41 °W | Updated 6 seconds ago

Clear
Clear
61.3 °F
Feels Like 61.3 °F
N
2.3
Wind Variable Wind from NW
Gusts 10.4 mph

Today is forecast to be nearly the same temperature as yesterday.

Today
High -- | Low -- °F
--% Chance of Precip.
Yesterday
High -- | Low -- °F
Precip. -- in
6:28 AM 8:42 PM
Waxing Gibbous, 75% visible
Pressure 30.07 in
Visibility 10.0 miles
Clouds Clear
Dew Point 14 °F
Humidity 19%
Rainfall 0.00 in
Snow Depth Not available.
UV 9 out of 12
Pollen Not available.
Air Quality Not available.
Flu Activity Not available.
METAR KCIU 281835Z AUTO 34009G17KT 10SM CLR 12/02 A3007 RMK AO1

More Conditions Fewer Conditions

Pressure 30.07 in
Visibility 10.0 miles
Clouds Clear
Dew Point 14 °F
Humidity 19%
Rainfall 0.00 in
Snow Depth Not available.
UV 9 out of 12
Pollen Not available.
Air Quality Not available.
Flu Activity Not available.
METAR KCIU 281835Z AUTO 34009G17KT 10SM CLR 12/02 A3007 RMK AO1

More Conditions Fewer Conditions

10-Day Weather Forecast

Almanac

Astronomy

Apr. 28, 2015 Rise Set
Actual Time
Civil Twilight
Nautical Twilight
Astronomical Twilight
Moon
Length of Visible Light
Length of Day
Tomorrow will be .
, % of the Moon is Illuminated

Today's Extremes

Country Highs Country Lows

Community

WunderPhotos

Upload Photos

1,817,725 photos uploaded!

WunderBlogs® & News

Nearby

Air Quality

  Air Quality AQ Index Pollutant
Not available.

Snow Depth

Station Depth Elevation

Earthquake Activity

City Distance Mag. Time & Date
Minimum magnitude displayed is 2.5.

Coastal Water Temperatures

Place Temperature

Stations

Nearby Weather Stations

Station Location Temp. Windchill Dew Point Humidity Wind Precip. Elev Updated Type